Hill City, Kansas
Current Conditions -  °F | °C
As of 11:53 AM on Thursday 29 Jan 2015 (Local Time) from KHLC Reporting Station
Clear Clear  
Wind Chill:   Ceiling: Unl
Heat Index:   Visibility: 10mi
Dew Point: -4°   Wind: 14mph
Humidity: 49%   Direction: 340°NNW
Pressure: 30.52"   Gusts: 24mph
Location:  39.36°N, 99.84°W
Report Text: KHLC 291753Z AUTO 34012G21KT 10SM CLR 06/M04 A3052 RMK AO2 SLP342 T00611039 10061 21011 51017
Loading
Personal Weather Stations






























Interactive Weather Map New forecast layout! Learn more

10-Day Weather Forecast

Advertisements
Track Severe Weather on mobile